Time;durP1;ratioP1;P1;durP2;ratioP2;P2;SDS_P1;SDS_P2;PMS_P1;PMS_P2;Temp;Humidity;BMP_temperature;BMP_pressure;BME280_temperature;BME280_humidity;BME280_pressure;Samples;Min_cycle;Max_cycle;Signal;HPM_P1;HPM_P2
2022/10/07 00:00:14;;;;;;;3.40;1.10;;;;;;;11.17;57.25;102575.66;4908566;28;98189;-49
2022/10/07 00:02:39;;;;;;;2.77;1.20;;;;;;;11.12;57.12;102570.72;4899789;28;97573;-49
2022/10/07 00:05:05;;;;;;;1.57;0.90;;;;;;;11.07;57.19;102560.28;4907999;28;96885;-50
2022/10/07 00:07:30;;;;;;;2.90;1.10;;;;;;;10.95;57.06;102561.13;4907821;28;96925;-50
2022/10/07 00:09:56;;;;;;;2.60;1.17;;;;;;;10.88;57.27;102562.13;4909113;28;97027;-49
2022/10/07 00:12:22;;;;;;;1.37;1.27;;;;;;;10.84;57.40;102561.50;4906941;28;97281;-49
2022/10/07 00:14:47;;;;;;;2.33;1.13;;;;;;;10.84;57.55;102561.50;4910143;28;96995;-51
2022/10/07 00:17:12;;;;;;;3.23;1.20;;;;;;;10.84;57.79;102583.53;4907772;28;100649;-50
2022/10/07 00:19:38;;;;;;;4.20;1.20;;;;;;;10.85;57.68;102565.81;4909379;28;97191;-50
2022/10/07 00:22:03;;;;;;;3.17;1.20;;;;;;;10.85;57.79;102554.78;4907165;28;96787;-50
2022/10/07 00:24:28;;;;;;;5.43;1.57;;;;;;;10.86;57.64;102555.53;4904967;28;96871;-50
2022/10/07 00:26:54;;;;;;;2.20;1.20;;;;;;;10.86;57.60;102559.06;4903339;28;104853;-50
2022/10/07 00:29:20;;;;;;;5.47;1.40;;;;;;;10.87;57.79;102554.34;4904927;28;97242;-50
2022/10/07 00:31:45;;;;;;;6.93;1.20;;;;;;;10.87;57.76;102557.09;4909454;28;97172;-50
2022/10/07 00:34:11;;;;;;;4.03;1.23;;;;;;;10.80;57.60;102549.84;4909093;28;97011;-49
2022/10/07 00:36:37;;;;;;;4.13;1.57;;;;;;;10.83;57.67;102537.94;4907443;28;98826;-50
2022/10/07 00:39:06;;;;;;;3.23;1.20;;;;;;;10.85;57.76;102545.75;4906379;28;97404;-50
2022/10/07 00:41:44;;;;;;;2.00;1.27;;;;;;;10.83;57.52;102537.16;4908752;28;97377;-50
2022/10/07 00:44:32;;;;;;;2.60;1.00;;;;;;;10.75;58.07;102542.16;4905408;28;96940;-50
2022/10/07 00:47:03;;;;;;;3.93;1.13;;;;;;;10.71;57.56;102537.97;4907406;28;103415;-50
2022/10/07 00:49:32;;;;;;;2.23;1.20;;;;;;;10.67;57.64;102529.88;4906643;28;97472;-50
2022/10/07 00:51:57;;;;;;;4.80;1.33;;;;;;;10.67;57.62;102531.84;4908369;28;97356;-50
2022/10/07 00:54:23;;;;;;;2.70;1.17;;;;;;;10.63;57.50;102528.44;4906770;28;97647;-49
2022/10/07 00:56:50;;;;;;;6.53;1.00;;;;;;;10.59;57.60;102522.31;4906576;28;97773;-50
2022/10/07 00:59:17;;;;;;;1.67;1.23;;;;;;;10.59;57.75;102530.56;4902640;28;99367;-50
2022/10/07 01:01:43;;;;;;;2.10;1.07;;;;;;;10.57;57.81;102519.22;4901929;28;97662;-51
2022/10/07 01:04:11;;;;;;;1.37;1.10;;;;;;;10.56;57.78;102518.44;4907493;28;97240;-50
2022/10/07 01:06:38;;;;;;;1.60;1.00;;;;;;;10.57;58.03;102519.22;4905872;28;100909;-49
2022/10/07 01:09:04;;;;;;;4.20;1.40;;;;;;;10.57;58.08;102509.75;4905519;28;97571;-50
2022/10/07 01:11:39;;;;;;;2.40;0.97;;;;;;;10.60;58.45;102507.31;4906474;28;97303;-49
2022/10/07 01:14:28;;;;;;;4.93;1.00;;;;;;;10.59;58.61;102500.28;4907091;28;97420;-50
2022/10/07 01:17:09;;;;;;;2.77;1.30;;;;;;;10.57;58.04;102503.50;4905072;28;101286;-50
2022/10/07 01:20:01;;;;;;;2.70;1.20;;;;;;;10.55;58.51;102494.88;4907469;28;97211;-50
2022/10/07 01:22:45;;;;;;;1.23;0.93;;;;;;;10.48;58.14;102495.91;4907859;28;97196;-50
2022/10/07 01:25:27;;;;;;;4.30;1.10;;;;;;;10.47;58.50;102497.13;4906611;28;96987;-50
2022/10/07 01:28:03;;;;;;;4.67;1.13;;;;;;;10.43;58.27;102488.25;4908574;28;97715;-49
2022/10/07 01:30:33;;;;;;;1.87;1.20;;;;;;;10.42;57.99;102492.19;4905160;28;101855;-50
2022/10/07 01:33:03;;;;;;;2.60;1.13;;;;;;;10.38;58.03;102490.78;4907232;28;97558;-50
2022/10/07 01:35:34;;;;;;;6.80;1.17;;;;;;;10.36;58.17;102473.94;4903221;28;96932;-50
2022/10/07 01:38:05;;;;;;;5.60;1.50;;;;;;;10.36;58.20;102469.22;4900608;28;97601;-50
2022/10/07 01:40:53;;;;;;;2.43;1.27;;;;;;;10.32;58.55;102460.31;4903738;28;97812;-49
2022/10/07 01:43:22;;;;;;;1.80;0.90;;;;;;;10.29;58.09;102471.44;4905717;28;97155;-50
2022/10/07 01:45:50;;;;;;;5.10;1.00;;;;;;;10.25;58.14;102457.81;4905025;28;97121;-53
2022/10/07 01:48:16;;;;;;;1.70;1.10;;;;;;;10.24;58.17;102459.00;4907109;28;97160;-50
2022/10/07 01:50:42;;;;;;;2.70;1.40;;;;;;;10.24;58.10;102456.25;4907461;28;99840;-50
2022/10/07 01:53:14;;;;;;;4.40;1.00;;;;;;;10.28;58.61;102458.91;4907952;28;97333;-50
2022/10/07 01:56:07;;;;;;;2.00;1.10;;;;;;;10.30;59.02;102449.00;4903927;28;97387;-50
2022/10/07 01:58:43;;;;;;;5.07;1.30;;;;;;;10.30;58.45;102440.75;4904409;28;102316;-50
2022/10/07 02:01:17;;;;;;;0.87;0.80;;;;;;;10.31;58.56;102439.53;4908668;28;97233;-50
2022/10/07 02:04:04;;;;;;;2.10;1.20;;;;;;;10.30;58.46;102440.75;4904620;28;97104;-50
2022/10/07 02:06:41;;;;;;;1.80;1.27;;;;;;;10.31;58.86;102431.25;4903860;28;97014;-50
2022/10/07 02:09:36;;;;;;;4.20;1.10;;;;;;;10.31;59.16;102442.28;4903519;28;101949;-49
2022/10/07 02:12:16;;;;;;;2.90;1.00;;;;;;;10.32;58.58;102432.03;4900695;28;100479;-50
2022/10/07 02:14:50;;;;;;;2.40;1.40;;;;;;;10.28;58.50;102434.94;4902062;28;96746;-50
2022/10/07 02:17:20;;;;;;;2.47;0.90;;;;;;;10.26;58.45;102428.34;4906390;28;97366;-55
2022/10/07 02:19:52;;;;;;;2.97;1.20;;;;;;;10.22;58.43;102422.19;4906256;28;98173;-50
2022/10/07 02:22:21;;;;;;;2.50;1.03;;;;;;;10.20;58.33;102430.88;4905279;28;100607;-50
2022/10/07 02:24:51;;;;;;;6.07;2.17;;;;;;;10.18;58.48;102416.78;4907845;28;97140;-50
2022/10/07 02:27:22;;;;;;;1.40;1.30;;;;;;;10.19;58.60;102423.84;4903444;28;97759;-50
2022/10/07 02:29:50;;;;;;;5.17;1.00;;;;;;;10.18;58.53;102410.53;4904808;28;96885;-49
2022/10/07 02:32:21;;;;;;;1.50;0.90;;;;;;;10.17;58.58;102415.28;4903797;28;98206;-50
2022/10/07 02:34:52;;;;;;;3.70;1.10;;;;;;;10.18;58.65;102416.78;4906135;28;97018;-50
2022/10/07 02:37:26;;;;;;;1.63;1.03;;;;;;;10.15;58.82;102406.69;4905710;28;97043;-49
2022/10/07 02:39:53;;;;;;;2.30;0.80;;;;;;;10.17;58.50;102412.53;4901106;28;99229;-49
2022/10/07 02:43:10;;;;;;;1.73;1.17;;;;;;;10.08;59.24;102406.91;4904567;28;97426;-50
2022/10/07 02:45:38;;;;;;;1.63;1.20;;;;;;;10.04;58.50;102409.03;4864720;28;97430;-49
2022/10/07 02:48:13;;;;;;;4.80;1.00;;;;;;;10.03;58.88;102399.22;4866618;28;97669;-50
2022/10/07 02:50:44;;;;;;;1.30;0.90;;;;;;;9.98;58.44;102405.28;4892623;28;100721;-50
2022/10/07 02:53:12;;;;;;;2.57;1.20;;;;;;;9.97;58.66;102403.75;4899520;28;102271;-50
2022/10/07 02:55:39;;;;;;;4.83;1.10;;;;;;;9.95;58.66;102397.16;4905257;28;96998;-49
2022/10/07 02:58:07;;;;;;;1.90;0.70;;;;;;;9.92;58.55;102395.31;4904881;28;97341;-49
2022/10/07 03:00:36;;;;;;;2.17;0.83;;;;;;;9.89;58.73;102396.97;4905049;28;98481;-50
2022/10/07 03:03:03;;;;;;;2.00;1.20;;;;;;;9.89;58.68;102393.47;4907102;28;97449;-49
2022/10/07 03:05:29;;;;;;;1.50;0.90;;;;;;;9.87;58.65;102396.66;4906765;28;96679;-50
2022/10/07 03:07:58;;;;;;;1.47;0.90;;;;;;;9.85;58.71;102390.81;4907367;28;97286;-49
2022/10/07 03:10:30;;;;;;;2.27;0.90;;;;;;;9.81;58.87;102385.44;4908193;28;97887;-49
2022/10/07 03:12:55;;;;;;;0.60;0.60;;;;;;;9.82;58.88;102386.22;4908707;28;98352;-50
2022/10/07 03:15:22;;;;;;;2.30;1.07;;;;;;;9.81;58.79;102381.91;4909057;28;97155;-49
2022/10/07 03:17:48;;;;;;;3.23;1.10;;;;;;;9.79;58.85;102378.84;4903296;28;97618;-50
2022/10/07 03:20:14;;;;;;;2.90;0.93;;;;;;;9.76;58.72;102374.25;4909989;28;97688;-49
2022/10/07 03:22:39;;;;;;;2.97;0.93;;;;;;;9.73;58.82;102370.41;4909865;28;96837;-49
2022/10/07 03:25:05;;;;;;;2.23;0.70;;;;;;;9.73;58.87;102373.16;4908563;28;97130;-50
2022/10/07 03:27:30;;;;;;;1.10;0.80;;;;;;;9.72;58.93;102368.09;4905334;28;97586;-49
2022/10/07 03:29:57;;;;;;;1.30;0.80;;;;;;;9.71;58.93;102369.31;4906530;28;104263;-50
2022/10/07 03:32:24;;;;;;;1.27;1.00;;;;;;;9.73;59.00;102364.16;4907821;28;97314;-50
2022/10/07 03:34:51;;;;;;;1.27;0.70;;;;;;;9.74;58.88;102360.19;4906154;28;97896;-50
2022/10/07 03:37:16;;;;;;;1.33;0.90;;;;;;;9.74;58.93;102363.69;4907015;28;97301;-49
2022/10/07 03:39:42;;;;;;;2.13;1.03;;;;;;;9.75;58.90;102361.72;4907399;28;97435;-50
2022/10/07 03:42:07;;;;;;;5.90;1.00;;;;;;;9.73;58.80;102364.16;4906697;28;113824;-50
2022/10/07 03:44:34;;;;;;;2.13;0.90;;;;;;;9.69;58.77;102352.50;4910921;28;97383;-50
2022/10/07 03:47:00;;;;;;;0.90;0.70;;;;;;;9.65;58.80;102362.84;4907291;28;96881;-49
2022/10/07 03:49:25;;;;;;;0.93;0.80;;;;;;;9.63;59.02;102357.03;4895937;28;98209;-50
2022/10/07 03:51:51;;;;;;;4.50;1.10;;;;;;;9.59;58.94;102351.66;4907076;28;97795;-50
2022/10/07 03:54:16;;;;;;;5.93;1.17;;;;;;;9.56;58.97;102351.78;4906099;28;96998;-50
2022/10/07 03:56:42;;;;;;;2.77;0.90;;;;;;;9.53;58.91;102341.66;4908963;28;97336;-50
2022/10/07 03:59:07;;;;;;;2.27;0.90;;;;;;;9.50;58.94;102342.56;4905044;28;101859;-50
2022/10/07 04:01:32;;;;;;;2.00;1.03;;;;;;;9.50;58.96;102340.56;4907467;28;97291;-50
2022/10/07 04:03:59;;;;;;;3.90;1.13;;;;;;;9.50;59.03;102342.56;4905751;28;108153;-50
2022/10/07 04:06:25;;;;;;;2.60;1.03;;;;;;;9.49;59.04;102332.78;4904657;28;97540;-50
2022/10/07 04:08:51;;;;;;;12.33;1.30;;;;;;;9.48;59.15;102332.00;4903987;28;98628;-50
2022/10/07 04:11:17;;;;;;;1.33;0.87;;;;;;;9.49;59.18;102335.53;4901525;28;97814;-50
2022/10/07 04:13:44;;;;;;;1.57;0.70;;;;;;;9.48;59.12;102329.25;4903701;28;97533;-49
2022/10/07 04:16:11;;;;;;;1.40;0.80;;;;;;;9.48;59.13;102336.75;4905927;28;97932;-50
2022/10/07 04:18:38;;;;;;;3.47;1.00;;;;;;;9.46;59.01;102342.66;4909716;28;98514;-51
2022/10/07 04:21:03;;;;;;;2.60;1.20;;;;;;;9.47;59.27;102324.22;4904896;28;97363;-51
2022/10/07 04:23:29;;;;;;;1.13;0.60;;;;;;;9.47;59.36;102329.69;4908642;28;97158;-50
2022/10/07 04:25:54;;;;;;;2.30;1.00;;;;;;;9.48;59.33;102323.00;4906745;28;96868;-50
2022/10/07 04:28:23;;;;;;;3.23;1.10;;;;;;;9.47;59.25;102322.25;4908017;28;97339;-50
2022/10/07 04:30:50;;;;;;;1.83;1.20;;;;;;;9.48;59.26;102325.75;4906084;28;97363;-50
2022/10/07 04:33:20;;;;;;;1.00;0.67;;;;;;;9.50;59.18;102323.34;4905631;28;97083;-50
2022/10/07 04:35:47;;;;;;;2.10;1.10;;;;;;;9.52;59.38;102320.91;4908196;28;97545;-50
2022/10/07 04:38:14;;;;;;;4.77;0.87;;;;;;;9.55;59.40;102320.78;4905320;28;102329;-50
2022/10/07 04:40:42;;;;;;;2.40;0.87;;;;;;;9.54;59.41;102322.00;4906525;28;97065;-50
2022/10/07 04:43:19;;;;;;;5.30;1.07;;;;;;;9.56;59.79;102321.56;4904562;28;97948;-50
2022/10/07 04:45:50;;;;;;;7.50;1.30;;;;;;;9.58;59.41;102310.88;4907997;28;97494;-50
2022/10/07 04:48:17;;;;;;;2.63;0.80;;;;;;;9.57;59.47;102314.81;4905103;28;97796;-50
2022/10/07 04:50:43;;;;;;;2.77;0.90;;;;;;;9.58;59.55;102317.16;4905654;28;96814;-50
2022/10/07 04:53:10;;;;;;;3.43;0.97;;;;;;;9.60;59.43;102305.72;4907647;28;97095;-50
2022/10/07 04:55:41;;;;;;;2.90;0.83;;;;;;;9.62;59.61;102306.03;4907350;28;97044;-50
2022/10/07 04:58:06;;;;;;;3.40;0.83;;;;;;;9.62;59.56;102306.03;4904386;28;97471;-51
2022/10/07 05:00:33;;;;;;;2.27;0.83;;;;;;;9.62;59.50;102308.78;4907910;28;97226;-50
2022/10/07 05:02:58;;;;;;;0.80;0.80;;;;;;;9.62;59.58;102306.81;4906396;28;97333;-50
2022/10/07 05:05:26;;;;;;;1.37;0.97;;;;;;;9.63;59.42;102307.56;4905343;28;97659;-50
2022/10/07 05:07:51;;;;;;;2.60;0.70;;;;;;;9.62;59.33;102308.78;4905794;28;97430;-50
2022/10/07 05:10:18;;;;;;;1.40;0.80;;;;;;;9.61;59.47;102301.75;4906043;28;97265;-50
2022/10/07 05:12:44;;;;;;;1.13;0.70;;;;;;;9.60;59.50;102311.97;4908035;28;97045;-50
2022/10/07 05:15:09;;;;;;;1.43;1.00;;;;;;;9.59;59.49;102309.66;4906741;28;97196;-50
2022/10/07 05:17:35;;;;;;;6.20;1.00;;;;;;;9.55;59.62;102303.50;4906142;28;97144;-50
2022/10/07 05:20:03;;;;;;;1.20;0.80;;;;;;;9.55;59.61;102295.28;4904345;28;97581;-50
2022/10/07 05:22:28;;;;;;;1.90;1.00;;;;;;;9.57;59.65;102309.34;4908508;28;97434;-50
2022/10/07 05:24:53;;;;;;;0.87;0.83;;;;;;;9.58;59.65;102297.16;4906666;28;102738;-50
2022/10/07 05:27:18;;;;;;;1.33;0.80;;;;;;;9.58;59.65;102299.88;4903940;28;112833;-49
2022/10/07 05:29:44;;;;;;;2.80;1.00;;;;;;;9.57;59.63;102296.38;4899272;28;97406;-50
2022/10/07 05:32:09;;;;;;;1.80;0.70;;;;;;;9.56;59.61;102300.34;4907511;28;97481;-50
2022/10/07 05:34:34;;;;;;;0.63;0.63;;;;;;;9.56;59.68;102299.56;4903779;28;102535;-49
2022/10/07 05:37:00;;;;;;;1.27;0.60;;;;;;;9.55;59.60;102292.53;4903817;28;107029;-50
2022/10/07 05:39:25;;;;;;;1.67;0.87;;;;;;;9.54;59.71;102288.25;4900501;28;97305;-49
2022/10/07 05:41:51;;;;;;;1.10;0.83;;;;;;;9.54;59.75;102285.50;4906485;28;97492;-50
2022/10/07 05:44:16;;;;;;;1.47;1.10;;;;;;;9.54;59.72;102285.50;4907779;28;97510;-50
2022/10/07 05:46:42;;;;;;;1.50;0.80;;;;;;;9.56;59.80;102288.59;4903886;28;97345;-49
2022/10/07 05:49:07;;;;;;;1.97;1.00;;;;;;;9.57;59.72;102287.34;4903755;28;97193;-50
2022/10/07 05:51:32;;;;;;;1.77;1.10;;;;;;;9.57;59.67;102284.59;4905364;28;99071;-49
2022/10/07 05:53:58;;;;;;;4.27;1.60;;;;;;;9.56;59.80;102283.09;4907044;28;97401;-50
2022/10/07 05:56:24;;;;;;;2.50;0.80;;;;;;;9.56;59.77;102285.84;4904556;28;97325;-49
2022/10/07 05:58:51;;;;;;;1.37;0.90;;;;;;;9.56;59.71;102283.09;4903330;28;96722;-50
2022/10/07 06:01:19;;;;;;;4.60;0.80;;;;;;;9.55;59.79;102282.31;4903475;28;98671;-49
2022/10/07 06:03:50;;;;;;;1.27;0.90;;;;;;;9.53;59.85;102283.97;4903826;28;97188;-50
2022/10/07 06:06:16;;;;;;;2.70;0.87;;;;;;;9.48;59.83;102271.56;4901236;28;97562;-50
2022/10/07 06:08:41;;;;;;;1.37;0.80;;;;;;;9.47;59.85;102272.78;4904296;28;97231;-50
2022/10/07 06:13:54;;;;;;;2.30;0.90;;;;;;;9.49;59.92;102266.84;4907028;28;97323;-50
2022/10/07 06:16:21;;;;;;;8.30;1.43;;;;;;;9.49;59.99;102264.09;4904837;28;98788;-50
2022/10/07 06:18:49;;;;;;;2.70;0.50;;;;;;;9.48;59.95;102257.06;4906983;28;97614;-50
2022/10/07 06:21:14;;;;;;;3.70;1.10;;;;;;;9.51;60.06;102262.44;4905004;28;97456;-49
2022/10/07 06:23:40;;;;;;;4.80;1.10;;;;;;;9.54;60.05;102260.78;4910150;28;100301;-50
2022/10/07 06:26:08;;;;;;;8.47;1.13;;;;;;;9.56;60.05;102266.59;4904888;28;100871;-50
2022/10/07 06:28:38;;;;;;;2.57;1.13;;;;;;;9.56;60.04;102267.38;4903674;28;96927;-50
2022/10/07 06:31:05;;;;;;;1.83;0.90;;;;;;;9.57;60.18;102268.88;4908517;28;96929;-50
2022/10/07 06:33:30;;;;;;;1.07;0.73;;;;;;;9.61;60.01;102268.78;4902521;28;96948;-50
2022/10/07 06:35:56;;;;;;;1.60;0.73;;;;;;;9.60;60.02;102268.00;4900834;28;98739;-50
2022/10/07 06:38:22;;;;;;;1.83;0.93;;;;;;;9.63;60.23;102267.09;4904538;28;99793;-50
2022/10/07 06:41:01;;;;;;;2.40;0.90;;;;;;;9.67;60.61;102258.75;4901979;28;97380;-50
2022/10/07 06:43:32;;;;;;;1.47;1.00;;;;;;;9.69;60.31;102265.34;4903511;28;97713;-50
2022/10/07 06:46:01;;;;;;;6.37;1.20;;;;;;;9.70;60.42;102266.09;4907927;28;97142;-50
2022/10/07 06:48:27;;;;;;;5.03;0.90;;;;;;;9.72;60.19;102263.66;4905243;28;99691;-50
2022/10/07 06:50:54;;;;;;;3.87;0.97;;;;;;;9.75;60.14;102260.03;4910147;28;97272;-50
2022/10/07 06:53:21;;;;;;;2.23;0.90;;;;;;;9.77;60.24;102271.34;4903872;28;97261;-51
2022/10/07 06:55:50;;;;;;;2.93;0.93;;;;;;;9.80;60.21;102260.22;4909056;28;97263;-50
2022/10/07 06:58:16;;;;;;;2.23;1.00;;;;;;;9.82;60.27;102274.28;4902234;28;100388;-50
2022/10/07 07:00:41;;;;;;;3.60;0.83;;;;;;;9.87;60.25;102270.19;4906801;28;97479;-50
2022/10/07 07:03:09;;;;;;;4.77;1.03;;;;;;;9.90;60.34;102269.28;4909546;28;96955;-48
2022/10/07 07:05:36;;;;;;;2.37;0.73;;;;;;;9.91;60.36;102268.09;4906029;28;97274;-50
2022/10/07 07:08:02;;;;;;;3.00;0.80;;;;;;;9.94;60.49;102261.69;4906261;28;96772;-50
2022/10/07 07:10:27;;;;;;;2.90;1.37;;;;;;;10.01;60.43;102268.91;4909208;28;97158;-50
2022/10/07 07:12:53;;;;;;;2.13;0.80;;;;;;;10.04;60.49;102260.53;4908390;28;97224;-50
2022/10/07 07:15:20;;;;;;;2.30;1.00;;;;;;;10.09;60.55;102270.94;4904845;28;97510;-50
2022/10/07 07:17:45;;;;;;;3.80;0.90;;;;;;;10.14;60.38;102267.63;4909066;28;97415;-50
2022/10/07 07:20:12;;;;;;;4.60;1.07;;;;;;;10.19;60.50;102271.78;4908414;28;96882;-50
2022/10/07 07:22:38;;;;;;;1.43;1.00;;;;;;;10.23;60.52;102261.41;4910105;28;97282;-50
2022/10/07 07:25:03;;;;;;;3.13;1.00;;;;;;;10.30;60.68;102263.91;4905552;28;97363;-50
2022/10/07 07:27:29;;;;;;;3.70;1.00;;;;;;;10.36;60.52;102256.59;4907930;28;97363;-50
2022/10/07 07:29:54;;;;;;;4.60;1.00;;;;;;;10.42;60.58;102254.78;4909705;28;96948;-50
2022/10/07 07:32:19;;;;;;;1.63;0.80;;;;;;;10.48;60.70;102253.75;4908962;28;105406;-50
2022/10/07 07:34:45;;;;;;;1.67;1.03;;;;;;;10.54;60.71;102251.19;4907689;28;112254;-49
2022/10/07 07:37:10;;;;;;;2.87;0.80;;;;;;;10.60;60.93;102251.34;4908243;28;98900;-50
2022/10/07 07:39:36;;;;;;;4.87;1.20;;;;;;;10.69;60.73;102243.91;4908289;28;97497;-50
2022/10/07 07:42:01;;;;;;;4.37;1.60;;;;;;;10.75;60.93;102242.06;4907804;28;96897;-50
2022/10/07 07:44:28;;;;;;;1.63;0.80;;;;;;;10.82;60.95;102244.53;4908884;28;96926;-50
2022/10/07 07:46:54;;;;;;;1.30;0.70;;;;;;;10.91;60.89;102243.78;4904135;28;97504;-50
2022/10/07 07:49:20;;;;;;;1.87;0.80;;;;;;;11.00;61.06;102232.81;4909320;28;97459;-50
2022/10/07 07:51:46;;;;;;;4.67;0.80;;;;;;;11.09;60.97;102239.09;4909960;28;97682;-50
2022/10/07 07:54:12;;;;;;;2.43;0.97;;;;;;;11.19;60.94;102237.88;4907169;28;97235;-50
2022/10/07 07:56:38;;;;;;;2.13;0.80;;;;;;;11.29;61.05;102238.66;4907670;28;98321;-50
2022/10/07 07:59:04;;;;;;;2.67;1.17;;;;;;;11.41;61.27;102234.97;4911216;28;96758;-50
2022/10/07 08:01:34;;;;;;;1.43;1.00;;;;;;;11.56;61.10;102235.91;4907281;28;97174;-49
2022/10/07 08:04:00;;;;;;;7.87;1.30;;;;;;;11.75;61.11;102242.94;4908504;28;96832;-50
2022/10/07 08:06:26;;;;;;;1.00;0.90;;;;;;;11.88;61.11;102237.28;4905976;28;97676;-50
2022/10/07 08:08:57;;;;;;;5.60;1.17;;;;;;;12.04;61.09;102240.44;4906944;28;97010;-55
2022/10/07 08:11:22;;;;;;;7.07;1.27;;;;;;;12.20;61.05;102241.31;4911180;28;96747;-50
2022/10/07 08:13:48;;;;;;;3.90;1.30;;;;;;;12.33;60.97;102230.84;4907154;28;97133;-50
2022/10/07 08:16:16;;;;;;;1.80;1.00;;;;;;;12.49;60.93;102241.53;4906744;28;97674;-50
2022/10/07 08:18:47;;;;;;;5.13;1.33;;;;;;;12.64;60.88;102240.41;4907151;28;97307;-49
2022/10/07 08:21:14;;;;;;;2.30;1.17;;;;;;;12.79;60.91;102234.94;4909485;28;97137;-50
2022/10/07 08:23:40;;;;;;;4.70;1.10;;;;;;;12.95;60.87;102225.47;4907465;28;97440;-50
2022/10/07 08:26:07;;;;;;;4.83;1.30;;;;;;;13.09;60.58;102227.56;4907223;28;96714;-50
2022/10/07 08:28:33;;;;;;;2.50;1.30;;;;;;;13.24;60.40;102225.59;4907453;28;96606;-50
2022/10/07 08:31:04;;;;;;;3.47;1.50;;;;;;;13.37;60.65;102217.81;4904817;28;97097;-50
2022/10/07 08:33:33;;;;;;;3.03;1.10;;;;;;;13.47;60.46;102214.53;4908119;28;97575;-50
2022/10/07 08:36:00;;;;;;;2.20;1.00;;;;;;;13.64;60.21;102211.28;4907602;28;98392;-50
2022/10/07 08:38:30;;;;;;;2.33;1.00;;;;;;;13.81;60.36;102213.09;4904030;28;96970;-50
2022/10/07 08:41:04;;;;;;;2.97;1.10;;;;;;;13.95;60.13;102217.13;4907009;28;97227;-50
2022/10/07 08:43:30;;;;;;;1.20;0.77;;;;;;;14.09;59.92;102214.34;4905664;28;96937;-50
2022/10/07 08:45:56;;;;;;;4.27;1.00;;;;;;;14.25;59.78;102205.53;4908018;28;97242;-50
2022/10/07 08:48:28;;;;;;;3.53;1.00;;;;;;;14.40;59.57;102202.00;4905707;28;97110;-50
2022/10/07 08:51:18;;;;;;;4.73;1.20;;;;;;;14.58;59.60;102196.22;4907085;28;97198;-50
2022/10/07 08:53:48;;;;;;;1.57;1.07;;;;;;;14.71;59.11;102189.13;4903908;28;101773;-50
2022/10/07 08:56:15;;;;;;;3.13;0.70;;;;;;;14.86;59.00;102186.28;4905456;28;97561;-50
2022/10/07 08:59:20;;;;;;;2.97;1.10;;;;;;;14.99;58.78;102189.47;4905579;28;97242;-50
2022/10/07 09:01:55;;;;;;;2.67;0.60;;;;;;;15.10;58.82;102177.75;4908795;28;97080;-50
2022/10/07 09:04:31;;;;;;;3.37;0.97;;;;;;;15.23;58.38;102178.91;4902585;28;97655;-51
2022/10/07 09:07:15;;;;;;;3.67;0.63;;;;;;;15.36;58.46;102173.00;4905101;28;97212;-51
2022/10/07 09:09:53;;;;;;;7.27;1.07;;;;;;;15.50;58.29;102167.38;4903895;28;97123;-51
2022/10/07 09:12:23;;;;;;;3.73;0.90;;;;;;;15.60;58.16;102168.72;4905078;28;97444;-50
2022/10/07 09:14:54;;;;;;;4.60;0.93;;;;;;;15.71;57.85;102173.63;4905717;28;97565;-50
2022/10/07 09:17:28;;;;;;;3.70;1.50;;;;;;;15.82;57.32;102164.63;4904282;28;100125;-50
2022/10/07 09:19:58;;;;;;;2.50;0.90;;;;;;;15.89;57.47;102162.19;4905847;28;96784;-50
2022/10/07 09:22:31;;;;;;;8.00;1.10;;;;;;;16.01;57.22;102163.78;4907729;28;97154;-50
2022/10/07 09:25:10;;;;;;;5.97;1.10;;;;;;;16.11;57.23;102156.78;4908494;28;101815;-50
2022/10/07 09:27:35;;;;;;;3.83;1.10;;;;;;;16.16;57.21;102158.81;4905270;28;101535;-49
2022/10/07 09:30:01;;;;;;;3.67;1.17;;;;;;;16.25;57.12;102153.09;4908697;28;96834;-50
2022/10/07 09:32:27;;;;;;;3.87;0.80;;;;;;;16.35;56.87;102143.31;4906007;28;97147;-50
2022/10/07 09:34:52;;;;;;;2.87;1.00;;;;;;;16.43;56.87;102141.59;4903549;28;97426;-50
2022/10/07 09:37:23;;;;;;;4.93;1.10;;;;;;;16.54;56.46;102142.91;4905788;28;107405;-51
2022/10/07 09:39:51;;;;;;;3.13;1.00;;;;;;;16.62;56.69;102144.72;4904818;28;97273;-50
2022/10/07 09:42:24;;;;;;;1.57;0.90;;;;;;;16.73;55.93;102136.44;4903058;28;97055;-50
2022/10/07 09:44:52;;;;;;;3.00;1.03;;;;;;;16.80;56.19;102135.22;4902778;28;98260;-51
2022/10/07 09:47:22;;;;;;;2.43;1.10;;;;;;;16.89;56.24;102135.75;4905494;28;97031;-54
2022/10/07 09:49:53;;;;;;;3.33;1.13;;;;;;;17.00;55.80;102130.22;4906708;28;97127;-50
2022/10/07 09:52:30;;;;;;;5.80;1.43;;;;;;;17.10;55.92;102125.22;4906915;28;97246;-50
2022/10/07 09:55:31;;;;;;;2.87;0.80;;;;;;;17.22;55.07;102132.31;4906274;28;103420;-51
2022/10/07 09:58:02;;;;;;;6.93;1.37;;;;;;;17.29;54.86;102128.28;4903587;28;102574;-54
2022/10/07 10:00:29;;;;;;;2.70;1.20;;;;;;;17.33;55.26;102121.19;4906806;28;97162;-50
2022/10/07 10:03:03;;;;;;;3.83;1.30;;;;;;;17.44;54.20;102123.22;4906460;28;97420;-50
2022/10/07 10:05:49;;;;;;;5.57;1.10;;;;;;;17.52;54.03;102119.47;4905667;28;102357;-51
2022/10/07 10:08:17;;;;;;;2.20;0.90;;;;;;;17.58;54.68;102120.22;4898207;28;101577;-51
2022/10/07 10:10:51;;;;;;;4.70;1.27;;;;;;;17.66;54.19;102115.69;4904714;28;97279;-49
2022/10/07 10:13:34;;;;;;;2.37;0.80;;;;;;;17.74;53.59;102113.91;4905844;28;96768;-51
2022/10/07 10:16:01;;;;;;;3.37;0.80;;;;;;;17.83;54.62;102116.44;4904097;28;97686;-51
2022/10/07 10:18:36;;;;;;;6.93;1.43;;;;;;;17.92;53.49;102118.19;4907925;28;97140;-50
2022/10/07 10:21:28;;;;;;;6.43;1.53;;;;;;;18.00;53.13;102112.88;4905423;28;97082;-50
2022/10/07 10:23:59;;;;;;;5.37;0.87;;;;;;;18.08;53.69;102117.44;4907901;28;96967;-51
2022/10/07 10:26:40;;;;;;;5.47;1.47;;;;;;;18.13;53.13;102096.41;4904786;28;97361;-51
2022/10/07 10:29:31;;;;;;;4.03;1.20;;;;;;;18.15;52.15;102097.38;4907939;28;96741;-49
2022/10/07 10:31:59;;;;;;;3.07;0.77;;;;;;;18.24;53.31;102088.75;4911185;28;96782;-54
2022/10/07 10:34:30;;;;;;;5.53;1.40;;;;;;;18.33;53.51;102098.88;4908159;28;97396;-50
2022/10/07 10:37:08;;;;;;;2.63;1.10;;;;;;;18.37;52.14;102091.03;4906698;28;101864;-50
2022/10/07 10:39:57;;;;;;;3.90;1.10;;;;;;;18.39;52.33;102075.28;4908618;28;102966;-51
2022/10/07 10:42:40;;;;;;;1.93;1.13;;;;;;;18.41;52.67;102081.09;4904856;28;96730;-51
2022/10/07 10:45:34;;;;;;;1.87;0.90;;;;;;;18.47;52.40;102075.53;4907779;28;97497;-51
2022/10/07 10:48:30;;;;;;;2.10;0.83;;;;;;;18.51;51.55;102074.00;4902685;28;101651;-51
2022/10/07 10:51:13;;;;;;;3.97;1.00;;;;;;;18.59;51.75;102063.06;4900794;28;101418;-50
2022/10/07 10:53:39;;;;;;;2.40;0.93;;;;;;;18.60;52.85;102059.00;4908293;28;97141;-50
2022/10/07 10:56:26;;;;;;;5.00;1.17;;;;;;;18.65;52.41;102056.19;4908444;28;96911;-51
2022/10/07 10:59:19;;;;;;;2.87;0.77;;;;;;;18.74;50.95;102043.22;4906254;28;103598;-51
2022/10/07 11:01:50;;;;;;;2.20;0.83;;;;;;;18.85;52.34;102045.97;4906188;28;96907;-51
2022/10/07 11:04:41;;;;;;;3.83;0.60;;;;;;;18.93;51.07;102046.91;4908619;28;96711;-51
2022/10/07 11:07:29;;;;;;;2.43;0.67;;;;;;;18.90;49.83;102034.75;4901981;28;96924;-51
2022/10/07 11:10:24;;;;;;;2.83;0.80;;;;;;;18.90;50.48;102031.19;4906720;28;101078;-51
2022/10/07 11:12:57;;;;;;;4.70;1.20;;;;;;;18.92;51.29;102012.69;4907317;28;100267;-51
2022/10/07 11:15:36;;;;;;;2.57;1.07;;;;;;;19.05;51.37;102018.41;4902820;28;97317;-50
2022/10/07 11:18:10;;;;;;;3.03;1.00;;;;;;;19.17;50.96;102011.50;4908795;28;97090;-51
2022/10/07 11:20:41;;;;;;;4.50;0.97;;;;;;;19.31;51.08;102006.78;4907400;28;101553;-51
2022/10/07 11:23:35;;;;;;;4.40;1.20;;;;;;;19.40;49.71;102012.84;4910807;28;102964;-49
2022/10/07 11:26:24;;;;;;;5.97;1.30;;;;;;;19.49;49.67;102008.19;4896944;28;97647;-50
2022/10/07 11:28:50;;;;;;;2.57;1.00;;;;;;;19.61;50.67;101999.19;4908566;28;97020;-51
2022/10/07 11:31:24;;;;;;;3.20;1.07;;;;;;;19.72;49.27;101995.53;4906712;28;97715;-52
2022/10/07 11:34:10;;;;;;;1.90;0.73;;;;;;;19.81;48.95;101987.53;4905151;28;101383;-52
2022/10/07 11:36:46;;;;;;;5.23;1.00;;;;;;;19.90;49.27;101989.22;4904134;28;96891;-51
2022/10/07 11:39:11;;;;;;;4.40;0.90;;;;;;;19.99;50.15;101986.84;4906779;28;97153;-51
2022/10/07 11:41:53;;;;;;;3.67;1.13;;;;;;;20.13;48.51;101982.09;4906637;28;96975;-51
2022/10/07 11:44:52;;;;;;;2.30;1.17;;;;;;;20.27;48.36;101980.91;4905704;28;97035;-51